| time (UTC) | temp C | wind direction | speed KPH | gust KPH | rain 1hr cm | rain 24hr cm | rain mn cm | humidity % | barometer mb |
| 20260506030604 | 6 | 305 | 3.2 | 11.3 | 0.00 | 0.00 | 0.00 | 82 | 1014.5 |
| 20260506030105 | 6 | 297 | 1.6 | 9.7 | 0.00 | 0.00 | 0.00 | 79 | 1014.6 |
| 20260506020103 | 6 | 189 | 3.2 | 11.3 | 0.00 | 0.00 | 0.00 | 80 | 1014.5 |
| 20260506013604 | 6 | 341 | 3.2 | 8.0 | 0.00 | 0.00 | 0.00 | 80 | 1014.6 |
| 20260506013103 | 6 | 341 | 3.2 | 9.7 | 0.00 | 0.00 | 0.00 | 78 | 1014.7 |
| 20260506010604 | 6 | 355 | 4.8 | 11.3 | 0.00 | 0.00 | 0.00 | 77 | 1014.8 |
| 20260506010103 | 6 | 336 | 1.6 | 9.7 | 0.00 | 0.00 | 0.00 | 78 | 1014.8 |
| 20260506003604 | 6 | 324 | 1.6 | 8.0 | 0.00 | 0.00 | 0.00 | 81 | 1014.8 |
| 20260505233604 | 7 | 32 | 1.6 | 8.0 | 0.00 | 0.00 | 0.00 | 83 | 1014.8 |
| 20260505233104 | 7 | 334 | 8.0 | 14.5 | 0.00 | 0.00 | 0.00 | 80 | 1014.8 |
| 20260505230603 | 7 | 35 | 1.6 | 8.0 | 0.00 | 0.00 | 0.00 | 85 | 1014.8 |
| 20260505230104 | 7 | 57 | 3.2 | 12.9 | 0.00 | 0.00 | 0.00 | 82 | 1015.0 |
| 20260505223605 | 7 | 330 | 4.8 | 11.3 | 0.00 | 0.00 | 0.00 | 83 | 1015.2 |
| 20260505223105 | 7 | 61 | 3.2 | 14.5 | 0.00 | 0.00 | 0.00 | 81 | 1015.2 |
| 20260505220604 | 7 | 20 | 4.8 | 14.5 | 0.00 | 0.00 | 0.00 | 82 | 1015.1 |
| 20260505203605 | 8 | 39 | 1.6 | 8.0 | 0.00 | 0.00 | 0.00 | 87 | 1014.7 |
| 20260505203104 | 8 | 38 | 3.2 | 11.3 | 0.00 | 0.00 | 0.00 | 86 | 1014.7 |
| 20260505200604 | 8 | 29 | 4.8 | 14.5 | 0.00 | 0.00 | 0.00 | 84 | 1014.5 |
| 20260505200104 | 9 | 3 | 3.2 | 14.5 | 0.00 | 0.00 | 0.00 | 84 | 1014.5 |
| 20260505193104 | 9 | 312 | 1.6 | 8.0 | 0.00 | 0.00 | 0.00 | 85 | 1014.1 |
| 20260505190603 | 10 | 5 | 0.0 | 4.8 | 0.00 | 0.00 | 0.00 | 88 | 1013.9 |
| 20260505183104 | 10 | 339 | 3.2 | 11.3 | 0.00 | 0.00 | 0.00 | 84 | 1013.9 |
| 20260505180605 | 11 | 20 | 0.0 | 0.0 | 0.00 | 0.00 | 0.00 | 82 | 1013.9 |
| 20260505180103 | 11 | 20 | 0.0 | 3.2 | 0.00 | 0.00 | 0.00 | 81 | 1013.9 |
| 20260505173603 | 11 | 20 | 0.0 | 3.2 | 0.00 | 0.00 | 0.00 | 79 | 1013.9 |
| 20260505170604 | 12 | 20 | 0.0 | 3.2 | 0.00 | 0.00 | 0.00 | 75 | 1013.9 |
| 20260505160604 | 12 | 20 | 1.6 | 4.8 | 0.00 | 0.00 | 0.00 | 74 | 1013.9 |
| 20260505153103 | 12 | 20 | 0.0 | 9.7 | 0.00 | 0.00 | 0.00 | 72 | 1013.9 |
| 20260505150104 | 12 | 20 | 3.2 | 8.0 | 0.00 | 0.00 | 0.00 | 70 | 1013.9 |
| 20260505140104 | 11 | 20 | 1.6 | 9.7 | 0.00 | 0.00 | 0.00 | 73 | 1014.1 |
| 20260505123603 | 11 | 17 | 1.6 | 4.8 | 0.00 | 0.00 | 0.00 | 72 | 1014.1 |
| 20260505120605 | 12 | 14 | 1.6 | 3.2 | 0.00 | 0.00 | 0.00 | 66 | 1014.0 |
| 20260505120103 | 12 | 14 | 3.2 | 12.9 | 0.00 | 0.00 | 0.00 | 63 | 1014.1 |
| 20260505113604 | 12 | 33 | 3.2 | 12.9 | 0.00 | 0.00 | 0.00 | 64 | 1014.1 |
| 20260505113105 | 12 | 32 | 3.2 | 12.9 | 0.00 | 0.00 | 0.00 | 66 | 1014.3 |
| 20260505100604 | 11 | 15 | 6.4 | 12.9 | 0.00 | 0.00 | 0.00 | 67 | 1014.4 |
| 20260505093604 | 11 | 293 | 3.2 | 8.0 | 0.00 | 0.00 | 0.00 | 73 | 1014.5 |
| 20260505090603 | 10 | 338 | 3.2 | 9.7 | 0.00 | 0.00 | 0.00 | 73 | 1014.4 |
| 20260505083604 | 9 | 42 | 3.2 | 11.3 | 0.00 | 0.00 | 0.00 | 85 | 1014.7 |
| 20260505083105 | 9 | 42 | 3.2 | 11.3 | 0.00 | 0.00 | 0.00 | 81 | 1014.8 |
| 20260505073105 | 7 | 333 | 3.2 | 8.0 | 0.00 | 0.00 | 0.00 | 100 | 1014.4 |
| 20260505070603 | 7 | 77 | 1.6 | 8.0 | 0.00 | 0.00 | 0.00 | 100 | 1014.6 |
| 20260505063604 | 6 | 316 | 0.0 | 1.6 | 0.00 | 0.00 | 0.00 | 100 | 1014.7 |
| 20260505063104 | 6 | 314 | 0.0 | 4.8 | 0.00 | 0.00 | 0.00 | 100 | 1014.7 |
| 20260505050604 | 2 | 21 | 0.0 | 0.0 | 0.00 | 0.00 | 0.00 | 100 | 1014.8 |
| 20260505050103 | 2 | 21 | 0.0 | 0.0 | 0.00 | 0.00 | 0.00 | 100 | 1014.8 |
| 20260505033604 | 3 | 21 | 0.0 | 0.0 | 0.00 | 0.00 | 0.00 | 100 | 1014.4 |
| 20260505033104 | 3 | 21 | 0.0 | 0.0 | 0.00 | 0.00 | 0.00 | 100 | 1014.4 |